Time;durP1;ratioP1;P1;durP2;ratioP2;P2;SDS_P1;SDS_P2;PMS_P1;PMS_P2;Temp;Humidity;BMP_temperature;BMP_pressure;BME280_temperature;BME280_humidity;BME280_pressure;Samples;Min_cycle;Max_cycle;Signal;HPM_P1;HPM_P2
2020/12/20 09:30:57;;;;;;;32.40;14.45;;;;;;;4.41;77.33;101913.33;1742191;77;22190;-61
2020/12/20 09:33:33;;;;;;;28.75;12.63;;;;;;;4.35;77.19;101916.03;1711175;82;21936;-62
2020/12/20 09:36:14;;;;;;;31.43;12.80;;;;;;;4.34;77.14;101915.66;1719091;83;21200;-62
2020/12/20 09:38:45;;;;;;;26.70;12.00;;;;;;;4.33;77.03;101911.71;1718972;82;21172;-62
2020/12/20 09:41:17;;;;;;;28.77;12.82;;;;;;;4.33;76.99;101913.94;1718825;83;21900;-61
2020/12/20 09:43:45;;;;;;;28.52;13.00;;;;;;;4.34;76.93;101914.80;1718833;82;21408;-64
2020/12/20 09:46:26;;;;;;;28.17;13.50;;;;;;;4.34;76.79;101915.66;1719028;82;21472;-63
2020/12/20 09:48:54;;;;;;;28.75;12.82;;;;;;;4.32;76.68;101916.27;1718774;82;21861;-62
2020/12/20 09:51:22;;;;;;;35.10;13.88;;;;;;;4.33;76.65;101918.00;1718819;83;21157;-61
2020/12/20 09:53:50;;;;;;;33.92;14.60;;;;;;;4.34;76.59;101910.73;1718812;83;21437;-64
2020/12/20 09:56:18;;;;;;;39.08;15.08;;;;;;;4.40;76.61;101917.03;1720575;81;21196;-62
2020/12/20 09:58:46;;;;;;;31.95;14.38;;;;;;;4.43;76.56;101912.72;1748641;82;21351;-63
2020/12/20 10:01:19;;;;;;;29.30;13.55;;;;;;;4.42;76.49;101913.21;1748675;81;21412;-62
2020/12/20 10:03:46;;;;;;;30.68;14.15;;;;;;;4.44;76.43;101909.88;1748746;82;21420;-61
2020/12/20 10:06:14;;;;;;;36.93;14.90;;;;;;;4.44;76.38;101910.38;1747823;81;21185;-64
2020/12/20 10:08:42;;;;;;;35.52;12.93;;;;;;;4.44;76.26;101904.95;1748248;82;21429;-63
2020/12/20 10:11:10;;;;;;;39.38;15.15;;;;;;;4.47;76.14;101911.48;1747762;82;21904;-62
2020/12/20 10:13:37;;;;;;;31.55;13.48;;;;;;;4.43;75.94;101905.93;1745660;82;21177;-61
2020/12/20 10:16:04;;;;;;;28.77;13.03;;;;;;;4.38;75.98;101911.72;1738499;81;22004;-61
2020/12/20 10:18:33;;;;;;;33.70;14.15;;;;;;;4.37;75.80;101914.56;1744590;81;21300;-67
2020/12/20 10:21:01;;;;;;;28.70;13.00;;;;;;;4.36;75.70;101907.41;1748618;81;21864;-64
2020/12/20 10:23:29;;;;;;;32.42;13.72;;;;;;;4.37;75.74;101909.13;1748547;81;21317;-65
2020/12/20 10:25:56;;;;;;;40.25;14.98;;;;;;;4.37;75.74;101909.13;1748645;82;21208;-65
2020/12/20 10:28:24;;;;;;;35.78;15.30;;;;;;;4.41;75.86;101914.69;1753010;81;22018;-69
2020/12/20 10:30:51;;;;;;;30.08;14.28;;;;;;;4.46;76.05;101908.41;1749284;81;21888;-67
2020/12/20 10:33:18;;;;;;;34.30;15.30;;;;;;;4.48;76.04;101904.20;1692016;82;21178;-67
2020/12/20 10:35:48;;;;;;;37.63;15.70;;;;;;;4.48;76.08;101901.00;1688547;85;21492;-68
2020/12/20 10:38:15;;;;;;;37.10;14.47;;;;;;;4.48;76.06;101905.56;1688598;83;21205;-68
2020/12/20 10:40:43;;;;;;;29.45;12.98;;;;;;;4.47;76.03;101901.98;1689292;83;21363;-70
2020/12/20 10:43:10;;;;;;;34.83;14.70;;;;;;;4.45;75.87;101903.96;1689108;83;21349;-70
2020/12/20 10:45:37;;;;;;;32.70;14.43;;;;;;;4.41;75.82;101902.48;1691688;84;21409;-69
2020/12/20 10:48:05;;;;;;;32.58;14.40;;;;;;;4.36;75.90;101906.05;1707846;82;21877;-70
2020/12/20 10:50:32;;;;;;;38.78;16.17;;;;;;;4.37;75.92;101909.13;1708223;84;21165;-67
2020/12/20 10:52:59;;;;;;;44.10;18.50;;;;;;;4.35;75.86;101898.89;1708177;82;21460;-67
2020/12/20 10:55:29;;;;;;;39.48;17.10;;;;;;;4.30;76.00;101902.45;1683143;82;21368;-67
2020/12/20 10:57:56;;;;;;;40.75;16.73;;;;;;;4.28;76.05;101900.36;1708161;82;21406;-67
2020/12/20 11:00:23;;;;;;;37.53;17.37;;;;;;;4.24;76.33;101896.16;1712285;83;21886;-67
2020/12/20 11:02:51;;;;;;;39.90;18.17;;;;;;;4.25;76.40;101906.02;1716220;83;21421;-67
2020/12/20 11:05:20;;;;;;;36.90;18.12;;;;;;;4.20;76.39;101907.74;1716230;83;21260;-68
2020/12/20 11:07:47;;;;;;;38.02;17.40;;;;;;;4.17;76.53;101903.91;1714687;82;21466;-68
2020/12/20 11:10:15;;;;;;;36.85;16.02;;;;;;;4.20;76.56;101906.38;1709183;83;21893;-66
2020/12/20 11:12:44;;;;;;;37.33;17.57;;;;;;;4.23;76.45;101903.92;1717745;83;21182;-66
2020/12/20 11:15:11;;;;;;;38.65;16.65;;;;;;;4.19;76.38;101908.72;1717706;83;21403;-69
2020/12/20 11:17:39;;;;;;;40.70;17.32;;;;;;;4.21;76.48;101905.89;1717731;83;21185;-70
2020/12/20 11:20:06;;;;;;;37.03;18.12;;;;;;;4.21;76.38;101912.67;1730966;82;21217;-69
2020/12/20 11:22:34;;;;;;;35.80;15.85;;;;;;;4.18;76.32;101908.84;1747903;82;21969;-67
2020/12/20 11:25:01;;;;;;;36.73;16.40;;;;;;;4.16;76.16;101907.61;1747978;82;21515;-67
2020/12/20 11:27:29;;;;;;;35.00;15.95;;;;;;;4.13;76.15;101904.64;1747967;82;21264;-63
2020/12/20 11:29:56;;;;;;;36.17;16.30;;;;;;;4.14;76.28;101914.50;1747841;82;21218;-62
2020/12/20 11:32:23;;;;;;;36.03;16.25;;;;;;;4.17;76.37;101905.76;1747939;82;22018;-63
2020/12/20 11:34:53;;;;;;;34.30;16.02;;;;;;;4.19;76.40;101911.93;1747705;82;21181;-63
2020/12/20 11:37:20;;;;;;;37.53;16.67;;;;;;;4.20;76.35;101919.08;1747908;82;21185;-64
2020/12/20 11:39:47;;;;;;;36.33;16.85;;;;;;;4.21;76.39;101916.25;1752805;81;21138;-63
2020/12/20 11:42:18;;;;;;;42.75;19.55;;;;;;;4.28;76.37;101915.28;1752808;82;21142;-63
2020/12/20 11:44:47;;;;;;;41.88;19.37;;;;;;;4.30;76.29;101914.67;1752814;82;21149;-63
2020/12/20 11:47:14;;;;;;;43.52;18.70;;;;;;;4.27;76.16;101915.77;1752228;82;21596;-62
2020/12/20 11:49:42;;;;;;;38.02;16.87;;;;;;;4.25;76.23;101920.94;1752871;82;21126;-63
2020/12/20 11:52:09;;;;;;;34.15;15.75;;;;;;;4.27;76.25;101917.63;1752940;81;21225;-62
2020/12/20 11:54:37;;;;;;;34.23;15.15;;;;;;;4.29;76.10;101926.50;1752800;82;21178;-63
2020/12/20 11:57:04;;;;;;;35.33;17.02;;;;;;;4.29;76.02;101913.80;1752682;81;21695;-63
2020/12/20 12:02:42;;;;;;;30.35;13.68;;;;;;;4.34;76.18;101921.58;1843567;77;22140;-62
2020/12/20 12:05:09;;;;;;;27.35;14.30;;;;;;;4.32;76.00;101930.34;1815908;79;21360;-62
2020/12/20 12:07:36;;;;;;;31.50;13.40;;;;;;;4.27;75.78;101930.70;1749288;82;21154;-61
2020/12/20 12:10:04;;;;;;;30.62;12.90;;;;;;;4.27;75.74;101932.05;1767375;81;21171;-61
2020/12/20 12:12:32;;;;;;;27.75;13.45;;;;;;;4.29;75.61;101927.38;1748984;81;21162;-61
2020/12/20 12:15:00;;;;;;;27.52;12.82;;;;;;;4.31;75.49;101925.89;1749313;82;21162;-62
2020/12/20 12:17:27;;;;;;;26.48;12.80;;;;;;;4.30;75.40;101923.67;1767296;80;21162;-61
2020/12/20 12:19:55;;;;;;;26.48;12.35;;;;;;;4.28;75.31;101930.20;1739779;82;21260;-62
2020/12/20 12:22:23;;;;;;;31.95;12.35;;;;;;;4.21;75.12;101935.73;1743468;82;21974;-64
2020/12/20 12:24:50;;;;;;;30.15;13.55;;;;;;;4.13;75.16;101939.91;1721811;82;21432;-62
2020/12/20 12:27:18;;;;;;;29.30;13.70;;;;;;;4.06;75.28;101933.22;1743499;82;21321;-63
2020/12/20 12:29:45;;;;;;;34.65;13.72;;;;;;;4.03;75.49;101940.24;1721852;83;21939;-65
2020/12/20 12:32:14;;;;;;;28.47;13.68;;;;;;;4.01;75.56;101938.63;1736474;81;21342;-63
2020/12/20 12:34:42;;;;;;;27.65;13.72;;;;;;;4.01;75.77;101937.27;1728397;82;21428;-62
2020/12/20 12:37:09;;;;;;;24.82;12.05;;;;;;;4.05;75.98;101940.98;1728316;82;21928;-67
2020/12/20 12:39:37;;;;;;;28.12;12.45;;;;;;;4.10;76.05;101936.56;1728325;82;21456;-62
2020/12/20 12:42:04;;;;;;;29.52;12.68;;;;;;;4.11;75.87;101944.58;1728560;82;21416;-63
2020/12/20 12:44:32;;;;;;;25.77;12.63;;;;;;;4.11;75.82;101944.58;1746395;81;21486;-65
2020/12/20 12:46:59;;;;;;;29.42;13.40;;;;;;;4.08;75.79;101943.46;1749505;81;21201;-66
2020/12/20 12:49:28;;;;;;;30.75;13.38;;;;;;;4.06;75.79;101949.50;1767395;80;21190;-64
2020/12/20 12:51:58;;;;;;;31.50;14.68;;;;;;;4.07;75.88;101944.45;1749292;82;21879;-66
2020/12/20 12:54:25;;;;;;;34.98;13.00;;;;;;;4.05;75.89;101949.61;1748236;82;21444;-63
2020/12/20 12:56:57;;;;;;;30.60;13.88;;;;;;;4.04;75.87;101951.47;1764764;81;21325;-65
2020/12/20 12:59:25;;;;;;;27.37;13.38;;;;;;;4.04;75.80;101950.11;1734881;82;21518;-65
2020/12/20 13:01:52;;;;;;;29.65;13.25;;;;;;;4.07;75.89;101952.58;1709801;83;21970;-65
2020/12/20 13:04:19;;;;;;;25.92;12.25;;;;;;;4.06;75.83;101949.50;1703883;84;21556;-62
2020/12/20 13:06:47;;;;;;;27.37;12.68;;;;;;;4.06;75.86;101950.85;1704007;84;21438;-64
2020/12/20 13:09:14;;;;;;;25.15;11.35;;;;;;;4.05;75.80;101952.33;1693264;83;21838;-62
2020/12/20 13:11:44;;;;;;;22.65;10.95;;;;;;;4.06;75.80;101954.92;1691889;84;21221;-64
2020/12/20 13:14:12;;;;;;;24.43;11.53;;;;;;;4.08;75.61;101954.80;1693318;83;21323;-64
2020/12/20 13:16:39;;;;;;;25.80;11.20;;;;;;;4.06;75.59;101957.63;1691434;84;21180;-61
2020/12/20 13:19:07;;;;;;;23.32;11.28;;;;;;;4.02;75.61;101957.98;1691512;84;21764;-64
2020/12/20 13:21:34;;;;;;;22.58;11.18;;;;;;;3.98;75.59;101961.42;1747405;82;21366;-63
2020/12/20 13:24:01;;;;;;;24.18;10.98;;;;;;;3.92;75.60;101954.25;1711426;83;21455;-64
2020/12/20 13:26:29;;;;;;;27.27;11.40;;;;;;;3.89;75.71;101957.16;1750934;80;21429;-65
2020/12/20 13:28:56;;;;;;;25.30;11.60;;;;;;;3.89;75.79;101963.45;1778017;80;21126;-62
2020/12/20 13:31:25;;;;;;;23.83;12.10;;;;;;;3.92;75.86;101953.75;1747788;80;21463;-63
2020/12/20 13:33:55;;;;;;;27.75;13.15;;;;;;;3.94;75.91;101965.35;1747071;82;21877;-61
2020/12/20 13:36:26;;;;;;;32.15;13.35;;;;;;;3.94;75.92;101962.64;1746456;82;21460;-63
2020/12/20 13:38:57;;;;;;;30.60;12.98;;;;;;;3.97;75.92;101971.03;1745951;80;21347;-63
2020/12/20 13:41:26;;;;;;;28.30;13.18;;;;;;;3.98;75.99;101968.70;1744281;82;21371;-64
2020/12/20 13:43:53;;;;;;;40.75;16.73;;;;;;;4.02;75.93;101969.70;1746233;81;21208;-62
2020/12/20 13:46:21;;;;;;;40.50;17.92;;;;;;;4.06;76.09;101975.27;1747228;82;21157;-66
2020/12/20 13:48:48;;;;;;;37.90;18.07;;;;;;;4.09;76.08;101969.61;1747245;82;21850;-64
2020/12/20 13:51:18;;;;;;;44.90;19.10;;;;;;;4.07;75.94;101972.93;1743897;82;22009;-65
2020/12/20 13:53:46;;;;;;;45.43;19.40;;;;;;;4.06;75.92;101971.20;1747180;82;21434;-62
2020/12/20 13:56:13;;;;;;;43.45;18.60;;;;;;;4.03;75.96;101971.44;1747059;80;21453;-63
2020/12/20 13:58:44;;;;;;;41.13;19.20;;;;;;;4.05;76.08;101969.95;1747263;80;21488;-62
2020/12/20 14:01:15;;;;;;;40.52;19.23;;;;;;;4.05;76.13;101974.02;1747506;81;21875;-64
2020/12/20 14:03:43;;;;;;;41.18;18.23;;;;;;;4.05;76.17;101978.95;1752545;81;21436;-64
2020/12/20 14:06:14;;;;;;;45.33;18.85;;;;;;;4.05;76.15;101982.16;1752010;81;21885;-66
2020/12/20 14:08:42;;;;;;;32.95;13.88;;;;;;;4.00;76.15;101975.73;1751994;81;21163;-65
2020/12/20 14:11:14;;;;;;;42.88;17.60;;;;;;;3.99;76.17;101976.72;1752540;81;21399;-62
2020/12/20 14:13:42;;;;;;;38.63;16.90;;;;;;;3.96;76.11;101980.16;1752603;82;21953;-62
2020/12/20 14:16:13;;;;;;;35.98;16.15;;;;;;;3.94;76.27;101987.05;1752341;82;21339;-62
2020/12/20 14:18:40;;;;;;;33.95;15.20;;;;;;;3.94;76.33;101992.47;1752481;80;21279;-63
2020/12/20 14:21:08;;;;;;;36.90;15.23;;;;;;;3.96;76.42;101997.29;1752139;82;21352;-66
2020/12/20 14:23:35;;;;;;;35.43;15.18;;;;;;;3.97;76.37;101978.67;1780689;80;21196;-68
2020/12/20 14:26:03;;;;;;;36.88;15.25;;;;;;;3.95;76.14;101989.27;1783496;80;21843;-64
2020/12/20 14:28:32;;;;;;;37.98;16.73;;;;;;;3.93;76.16;101985.81;1753024;80;21485;-64
2020/12/20 14:30:59;;;;;;;30.70;15.05;;;;;;;3.87;76.14;101987.10;1752522;81;21357;-69
2020/12/20 14:33:27;;;;;;;33.33;15.58;;;;;;;3.86;76.27;102000.78;1753052;81;22005;-68
2020/12/20 14:35:54;;;;;;;34.78;15.72;;;;;;;3.78;76.26;101997.28;1752379;81;21398;-70
2020/12/20 14:38:23;;;;;;;35.88;15.13;;;;;;;3.76;76.23;101995.17;1752426;82;21156;-70
2020/12/20 14:40:51;;;;;;;41.88;18.75;;;;;;;3.74;76.29;101998.00;1752484;81;21156;-71
2020/12/20 14:43:20;;;;;;;38.28;17.15;;;;;;;3.73;76.34;101998.98;1752354;81;21141;-68
2020/12/20 14:45:48;;;;;;;36.98;16.97;;;;;;;3.72;76.31;102005.88;1752407;81;21410;-72
2020/12/20 14:48:15;;;;;;;36.63;17.05;;;;;;;3.67;76.38;102005.35;1754483;81;21410;-71
2020/12/20 14:53:23;;;;;;;91.17;31.52;;;;;;;3.69;76.67;102008.33;1698604;83;21920;-70
2020/12/20 14:55:50;;;;;;;42.30;17.62;;;;;;;3.73;76.64;102004.90;1722485;82;21187;-63
2020/12/20 14:58:18;;;;;;;36.10;15.00;;;;;;;3.76;76.50;102006.02;1724129;82;21203;-72
2020/12/20 15:00:45;;;;;;;35.38;15.75;;;;;;;3.75;76.30;102000.22;1724714;82;21188;-72
2020/12/20 15:03:12;;;;;;;32.13;14.23;;;;;;;3.70;76.34;102006.48;1718792;82;21212;-74
2020/12/20 15:05:41;;;;;;;35.52;16.67;;;;;;;3.67;76.43;102008.06;1717013;83;21610;-73
2020/12/20 15:08:10;;;;;;;45.55;18.92;;;;;;;3.62;76.33;102004.34;1716919;82;21476;-72
2020/12/20 15:10:39;;;;;;;34.63;14.98;;;;;;;3.60;76.46;102006.30;1716965;83;21196;-75
2020/12/20 15:13:06;;;;;;;37.35;17.27;;;;;;;3.59;76.44;102010.48;1717005;83;21828;-72
2020/12/20 15:15:34;;;;;;;36.40;15.32;;;;;;;3.56;76.57;102013.41;1716946;83;21169;-73
2020/12/20 15:18:01;;;;;;;35.65;15.28;;;;;;;3.56;76.73;102003.92;1716973;82;21614;-71
2020/12/20 15:20:28;;;;;;;32.73;14.70;;;;;;;3.57;76.74;102013.30;1715700;82;21264;-69
2020/12/20 15:22:56;;;;;;;31.10;13.90;;;;;;;3.55;76.68;102019.32;1716906;83;21203;-75
2020/12/20 15:25:23;;;;;;;30.75;13.80;;;;;;;3.54;76.75;102016.73;1714876;83;21179;-67
2020/12/20 15:27:50;;;;;;;35.83;14.13;;;;;;;3.54;76.75;102016.73;1729321;82;21845;-69
2020/12/20 15:30:18;;;;;;;32.78;14.05;;;;;;;3.56;76.80;102021.55;1745300;82;21224;-70
2020/12/20 15:32:45;;;;;;;37.75;15.20;;;;;;;3.57;76.78;102025.98;1744537;82;21431;-69
2020/12/20 15:35:13;;;;;;;36.40;15.95;;;;;;;3.55;76.84;102023.38;1744524;82;21174;-71
2020/12/20 15:37:42;;;;;;;40.30;18.10;;;;;;;3.57;77.01;102027.34;1745993;82;21162;-70
2020/12/20 15:40:09;;;;;;;45.05;17.17;;;;;;;3.59;77.00;102023.54;1744648;82;21943;-70
2020/12/20 15:42:37;;;;;;;38.40;15.38;;;;;;;3.63;76.98;102029.59;1744512;82;21462;-69
2020/12/20 15:45:05;;;;;;;40.43;17.57;;;;;;;3.64;76.87;102032.19;1745538;82;21178;-69
2020/12/20 15:47:32;;;;;;;40.85;17.35;;;;;;;3.57;76.80;102031.41;1744571;82;21416;-70
2020/12/20 15:50:01;;;;;;;36.55;16.37;;;;;;;3.52;76.98;102027.68;1743963;81;21174;-70
2020/12/20 15:52:29;;;;;;;40.48;17.75;;;;;;;3.54;77.29;102030.27;1744461;82;21228;-69
2020/12/20 15:54:57;;;;;;;42.70;16.93;;;;;;;3.56;77.24;102022.90;1744558;82;21831;-71
2020/12/20 15:57:26;;;;;;;53.35;20.85;;;;;;;3.57;77.30;102026.84;1745186;81;21793;-71
2020/12/20 15:59:53;;;;;;;45.10;19.27;;;;;;;3.61;77.32;102026.13;1746453;82;21174;-68
2020/12/20 16:02:21;;;;;;;42.38;18.60;;;;;;;3.57;77.12;102023.27;1747301;81;21181;-71
2020/12/20 16:04:49;;;;;;;46.48;20.57;;;;;;;3.47;77.18;102025.30;1752152;82;21178;-70
2020/12/20 16:07:18;;;;;;;43.83;19.65;;;;;;;3.39;77.49;102022.78;1750278;82;21193;-71
2020/12/20 16:09:46;;;;;;;43.63;16.70;;;;;;;3.42;77.62;102026.62;1750666;82;21187;-70
2020/12/20 16:12:13;;;;;;;40.15;16.77;;;;;;;3.40;77.65;102022.66;1751087;82;21766;-71
2020/12/20 16:14:42;;;;;;;41.53;16.48;;;;;;;3.41;77.71;102024.39;1750057;82;21197;-71
2020/12/20 16:17:09;;;;;;;41.73;16.37;;;;;;;3.44;77.81;102030.95;1722976;82;21464;-71
2020/12/20 16:19:37;;;;;;;41.18;18.48;;;;;;;3.50;77.85;102028.28;1750158;82;21457;-70
2020/12/20 16:22:05;;;;;;;38.92;16.07;;;;;;;3.46;77.73;102027.64;1748733;82;21169;-69
2020/12/20 16:24:32;;;;;;;42.65;17.23;;;;;;;3.50;77.78;102029.63;1751967;82;21221;-71
2020/12/20 16:26:59;;;;;;;38.88;15.68;;;;;;;3.50;77.69;102025.08;1751926;82;21654;-70
2020/12/20 16:29:27;;;;;;;40.78;18.42;;;;;;;3.54;77.58;102024.85;1752135;82;21376;-71
2020/12/20 16:31:58;;;;;;;36.73;16.48;;;;;;;3.57;77.61;102025.98;1752093;82;21853;-70
2020/12/20 16:34:36;;;;;;;36.93;16.65;;;;;;;3.60;77.46;102022.56;1750114;82;21209;-72
2020/12/20 16:37:05;;;;;;;35.35;15.93;;;;;;;3.61;77.31;102030.20;1749644;82;21211;-67
2020/12/20 16:39:32;;;;;;;37.20;15.23;;;;;;;3.58;77.15;102027.23;1752117;82;21825;-70
2020/12/20 16:42:00;;;;;;;36.28;16.02;;;;;;;3.52;77.06;102024.97;1750015;82;21177;-72
2020/12/20 16:44:27;;;;;;;42.33;17.77;;;;;;;3.53;77.15;102029.90;1750138;82;21900;-70
2020/12/20 16:46:58;;;;;;;43.40;19.57;;;;;;;3.53;77.08;102035.31;1751345;82;21464;-71
2020/12/20 16:49:26;;;;;;;41.15;17.75;;;;;;;3.41;77.05;102036.59;1750249;82;21451;-70
2020/12/20 16:51:54;;;;;;;46.35;19.67;;;;;;;3.34;77.38;102026.31;1752172;82;21416;-72
2020/12/20 16:54:21;;;;;;;51.37;20.52;;;;;;;3.32;77.57;102034.55;1750542;82;21213;-70
2020/12/20 16:56:49;;;;;;;48.25;19.50;;;;;;;3.32;77.69;102032.33;1752249;82;21272;-69
2020/12/20 16:59:16;;;;;;;46.33;19.23;;;;;;;3.37;77.84;102036.92;1751879;81;21243;-68
2020/12/20 17:01:45;;;;;;;40.52;16.82;;;;;;;3.41;77.91;102039.30;1745009;82;21181;-70
2020/12/20 17:04:15;;;;;;;42.83;19.05;;;;;;;3.44;77.95;102034.14;1739803;82;21134;-70
2020/12/20 17:06:44;;;;;;;44.77;18.90;;;;;;;3.48;77.91;102032.45;1744848;81;21378;-69
2020/12/20 17:09:13;;;;;;;42.80;17.52;;;;;;;3.53;77.78;102029.90;1742152;81;21475;-70
2020/12/20 17:11:40;;;;;;;43.45;16.82;;;;;;;3.57;77.68;102025.98;1742801;82;21280;-70
2020/12/20 17:14:07;;;;;;;43.52;19.05;;;;;;;3.59;77.40;102028.95;1744834;82;21198;-71
2020/12/20 17:16:35;;;;;;;45.50;20.77;;;;;;;3.59;77.22;102032.16;1744680;82;21413;-70
2020/12/20 17:19:03;;;;;;;50.38;21.40;;;;;;;3.57;77.17;102025.98;1746568;82;21725;-70
2020/12/20 17:21:30;;;;;;;58.63;23.20;;;;;;;3.55;77.15;102031.52;1745617;81;21170;-71
2020/12/20 17:23:57;;;;;;;71.92;23.27;;;;;;;3.53;77.11;102025.83;1744667;82;21829;-73
2020/12/20 17:26:25;;;;;;;74.05;25.85;;;;;;;3.52;77.08;102029.03;1744970;81;21253;-71
2020/12/20 17:28:52;;;;;;;70.95;26.57;;;;;;;3.50;76.94;102026.92;1746570;82;21368;-71
2020/12/20 17:31:21;;;;;;;63.73;25.52;;;;;;;3.47;77.04;102030.72;1744503;81;21522;-71
2020/12/20 17:33:49;;;;;;;55.20;23.40;;;;;;;3.47;77.08;102026.66;1741679;81;21380;-71
2020/12/20 17:36:24;;;;;;;69.77;27.65;;;;;;;3.44;77.01;102024.17;1744153;81;21201;-72
2020/12/20 17:38:49;;;;;;;60.88;23.35;;;;;;;3.46;77.14;102029.48;1755831;81;21260;-71
2020/12/20 17:41:25;;;;;;;45.55;19.60;;;;;;;3.49;77.00;102021.99;1754627;81;21345;-70
2020/12/20 17:43:53;;;;;;;46.83;20.65;;;;;;;3.47;76.92;102025.30;1755702;81;21162;-71
2020/12/20 17:46:21;;;;;;;43.45;17.50;;;;;;;3.48;76.96;102039.23;1754705;81;21897;-69
2020/12/20 17:48:54;;;;;;;43.92;18.98;;;;;;;3.49;76.96;102036.90;1722811;83;21177;-70
2020/12/20 17:51:19;;;;;;;45.73;20.08;;;;;;;3.50;76.88;102036.41;1753732;81;21154;-73
2020/12/20 17:53:47;;;;;;;47.65;19.02;;;;;;;3.52;76.89;102036.30;1754537;81;21133;-72
2020/12/20 17:56:19;;;;;;;38.95;16.12;;;;;;;3.57;76.85;102034.98;1754445;81;21852;-69
2020/12/20 17:58:47;;;;;;;38.50;17.55;;;;;;;3.63;76.73;102039.08;1734251;81;21743;-69
2020/12/20 18:01:15;;;;;;;41.55;18.95;;;;;;;3.64;76.52;102034.91;1737998;82;21186;-70
2020/12/20 18:03:43;;;;;;;41.48;17.37;;;;;;;3.62;76.48;102038.70;1716450;82;21187;-71
2020/12/20 18:06:10;;;;;;;39.00;17.20;;;;;;;3.60;76.42;102037.47;1696511;82;21197;-71
2020/12/20 18:08:38;;;;;;;39.73;16.25;;;;;;;3.58;76.36;102038.55;1735571;82;21201;-71
2020/12/20 18:11:06;;;;;;;44.13;18.02;;;;;;;3.56;76.35;102040.52;1744280;82;21448;-70
2020/12/20 18:13:34;;;;;;;42.35;17.98;;;;;;;3.56;76.33;102039.16;1746393;82;21295;-70
2020/12/20 18:16:01;;;;;;;44.73;18.82;;;;;;;3.55;76.49;102044.20;1720626;82;21189;-72
2020/12/20 18:18:29;;;;;;;46.48;18.75;;;;;;;3.60;76.55;102037.95;1712806;83;21298;-71
2020/12/20 18:20:56;;;;;;;43.87;18.40;;;;;;;3.62;76.56;102038.70;1706137;82;21925;-72
2020/12/20 18:23:24;;;;;;;42.95;17.73;;;;;;;3.62;76.51;102035.51;1718341;82;21252;-72
2020/12/20 18:25:51;;;;;;;49.80;18.45;;;;;;;3.60;76.46;102041.53;1713302;82;21863;-71
2020/12/20 18:28:19;;;;;;;47.30;19.15;;;;;;;3.58;76.41;102041.27;1714882;83;21452;-73
2020/12/20 18:30:47;;;;;;;44.42;18.30;;;;;;;3.58;76.51;102048.04;1716875;83;21229;-71
2020/12/20 18:33:15;;;;;;;47.70;19.57;;;;;;;3.60;76.57;102044.73;1714878;83;21481;-72
2020/12/20 18:35:42;;;;;;;54.45;22.00;;;;;;;3.61;76.68;102045.11;1714965;83;21162;-68
2020/12/20 18:38:10;;;;;;;61.68;25.80;;;;;;;3.61;76.61;102046.47;1714918;83;21425;-69
2020/12/20 18:40:37;;;;;;;59.45;22.80;;;;;;;3.60;76.71;102046.95;1715382;83;21158;-72
2020/12/20 18:43:06;;;;;;;52.93;20.15;;;;;;;3.62;76.76;102047.70;1716529;83;21267;-70
2020/12/20 18:45:34;;;;;;;55.45;22.73;;;;;;;3.67;76.77;102055.50;1717809;82;21417;-71
2020/12/20 18:48:01;;;;;;;49.67;19.95;;;;;;;3.70;76.79;102042.59;1739200;82;21138;-72
2020/12/20 18:50:29;;;;;;;46.80;19.67;;;;;;;3.73;76.77;102045.56;1739099;82;21237;-70
2020/12/20 18:52:56;;;;;;;49.00;18.92;;;;;;;3.75;76.60;102048.53;1737896;82;21286;-69
2020/12/20 18:55:24;;;;;;;42.45;17.10;;;;;;;3.74;76.48;102051.36;1738786;82;21181;-68
2020/12/20 18:57:52;;;;;;;47.08;18.02;;;;;;;3.73;76.38;102051.84;1739074;82;21170;-70
2020/12/20 19:00:19;;;;;;;45.80;18.05;;;;;;;3.72;76.34;102056.03;1737041;82;21959;-69
2020/12/20 19:02:48;;;;;;;57.62;23.15;;;;;;;3.72;76.39;102061.45;1738702;82;21968;-70
2020/12/20 19:05:15;;;;;;;59.55;22.75;;;;;;;3.75;76.38;102055.31;1743483;82;21443;-70
2020/12/20 19:07:43;;;;;;;57.60;24.50;;;;;;;3.73;76.37;102056.41;1743929;82;21154;-71
2020/12/20 19:10:10;;;;;;;55.20;22.42;;;;;;;3.73;76.38;102061.83;1742695;82;21154;-71
2020/12/20 19:12:38;;;;;;;58.95;21.25;;;;;;;3.70;76.48;102060.70;1742690;82;21200;-69
2020/12/20 19:15:06;;;;;;;50.55;19.27;;;;;;;3.67;76.40;102057.72;1742677;81;21194;-72
2020/12/20 19:17:35;;;;;;;65.22;24.18;;;;;;;3.66;76.46;102059.19;1742714;82;21905;-69
2020/12/20 19:20:03;;;;;;;102.47;36.13;;;;;;;3.62;76.53;102054.48;1744815;82;21197;-71
2020/12/20 19:22:31;;;;;;;75.22;30.20;;;;;;;3.57;76.65;102058.02;1705842;84;21217;-71
2020/12/20 19:24:58;;;;;;;79.82;31.27;;;;;;;3.50;76.76;102060.31;1686314;85;21178;-70
2020/12/20 19:27:26;;;;;;;60.35;23.20;;;;;;;3.48;76.93;102063.62;1686560;85;21225;-71
2020/12/20 19:29:55;;;;;;;65.72;23.07;;;;;;;3.49;77.06;102061.77;1684743;84;21198;-69
2020/12/20 19:32:22;;;;;;;61.65;23.90;;;;;;;3.52;77.09;102063.39;1684713;85;21460;-72
2020/12/20 19:34:49;;;;;;;62.58;25.60;;;;;;;3.53;77.14;102064.64;1684757;85;21226;-69
2020/12/20 19:37:17;;;;;;;64.62;24.90;;;;;;;3.52;77.18;102068.33;1685607;85;21213;-71
2020/12/20 19:39:44;;;;;;;58.23;25.43;;;;;;;3.50;77.17;102062.15;1684850;84;21345;-70
2020/12/20 19:42:11;;;;;;;64.42;23.45;;;;;;;3.47;77.18;102074.08;1684567;85;22000;-71
2020/12/20 19:44:39;;;;;;;53.68;21.62;;;;;;;3.47;77.31;102074.08;1684740;85;21452;-70
2020/12/20 19:47:07;;;;;;;53.42;21.85;;;;;;;3.50;77.35;102072.50;1686608;85;21193;-69
2020/12/20 19:49:35;;;;;;;58.92;23.25;;;;;;;3.53;77.36;102075.48;1686672;85;21186;-71
2020/12/20 19:52:02;;;;;;;54.25;21.95;;;;;;;3.52;77.31;102074.23;1686678;85;21186;-73
2020/12/20 19:54:30;;;;;;;49.05;18.85;;;;;;;3.48;77.24;102076.30;1684702;85;21469;-70
2020/12/20 19:56:57;;;;;;;57.65;21.00;;;;;;;3.42;77.21;102075.39;1684513;85;21991;-71
2020/12/20 19:59:24;;;;;;;49.27;20.17;;;;;;;3.41;77.31;102074.52;1684411;85;21154;-68
2020/12/20 20:01:52;;;;;;;50.58;19.55;;;;;;;3.44;77.34;102075.66;1685249;85;21850;-70
2020/12/20 20:04:19;;;;;;;58.25;21.23;;;;;;;3.42;77.14;102071.33;1682589;85;21473;-71
2020/12/20 20:06:47;;;;;;;58.48;23.02;;;;;;;3.37;77.20;102075.72;1676820;85;21842;-69
2020/12/20 20:09:15;;;;;;;52.38;20.55;;;;;;;3.35;77.27;102074.97;1678709;85;21257;-72
2020/12/20 20:11:42;;;;;;;55.98;19.15;;;;;;;3.36;77.29;102079.41;1678095;85;21973;-68
2020/12/20 20:14:11;;;;;;;59.08;18.60;;;;;;;3.32;77.30;102077.03;1676893;85;21976;-71
2020/12/20 20:16:38;;;;;;;52.20;19.48;;;;;;;3.31;77.42;102088.36;1676900;85;21552;-69
2020/12/20 20:19:06;;;;;;;48.85;18.05;;;;;;;3.27;77.55;102083.27;1676781;85;21198;-69
2020/12/20 20:21:33;;;;;;;54.10;18.80;;;;;;;3.24;77.70;102091.58;1691330;84;21913;-68
2020/12/20 20:24:04;;;;;;;49.75;17.95;;;;;;;3.20;77.81;102085.51;1692120;84;21241;-69
2020/12/20 20:26:32;;;;;;;61.75;20.35;;;;;;;3.16;77.96;102090.28;1691549;84;21879;-68
2020/12/20 20:28:59;;;;;;;51.02;18.55;;;;;;;3.14;78.08;102090.87;1691430;84;21542;-70
2020/12/20 20:31:28;;;;;;;58.52;20.88;;;;;;;3.14;78.24;102085.95;1678018;85;21917;-70
2020/12/20 20:33:59;;;;;;;57.30;20.65;;;;;;;3.15;78.43;102085.84;1691402;84;21412;-69
2020/12/20 20:36:36;;;;;;;58.95;21.77;;;;;;;3.18;78.53;102092.88;1692094;84;21404;-72
2020/12/20 20:39:05;;;;;;;57.50;22.42;;;;;;;3.19;78.51;102090.55;1676978;85;21204;-69
2020/12/20 20:41:33;;;;;;;57.05;19.90;;;;;;;3.18;78.54;102088.81;1691424;84;21917;-71
2020/12/20 20:44:00;;;;;;;61.13;21.10;;;;;;;3.18;78.51;102093.74;1693440;84;21462;-70
2020/12/20 20:46:33;;;;;;;60.52;21.48;;;;;;;3.21;78.55;102094.02;1691164;84;21306;-71
2020/12/20 20:49:01;;;;;;;64.00;21.40;;;;;;;3.21;78.42;102100.78;1676308;85;21234;-71
2020/12/20 20:51:29;;;;;;;56.05;20.40;;;;;;;3.19;78.41;102101.38;1677825;85;21222;-68
2020/12/20 20:53:57;;;;;;;57.62;20.97;;;;;;;3.20;78.41;102104.47;1677569;85;21617;-70
2020/12/20 20:56:30;;;;;;;54.50;18.95;;;;;;;3.17;78.43;102104.69;1676845;85;21450;-70